sensor_id;sensor_type;location;lat;lon;timestamp;pressure;altitude;pressure_sealevel;temperature;humidity
5522;BME280;2783;48.730;8.006;2024-02-04T00:02:17;101441.09;;;9.52;100.00
5522;BME280;2783;48.730;8.006;2024-02-04T00:04:42;101430.50;;;9.43;100.00
5522;BME280;2783;48.730;8.006;2024-02-04T00:07:08;101430.47;;;9.49;100.00
5522;BME280;2783;48.730;8.006;2024-02-04T00:09:33;101430.50;;;9.46;100.00
5522;BME280;2783;48.730;8.006;2024-02-04T00:11:59;101419.88;;;9.46;100.00
5522;BME280;2783;48.730;8.006;2024-02-04T00:14:28;101403.97;;;9.43;100.00
5522;BME280;2783;48.730;8.006;2024-02-04T00:16:53;101379.19;;;9.40;100.00
5522;BME280;2783;48.730;8.006;2024-02-04T00:19:19;101380.13;;;9.31;100.00
5522;BME280;2783;48.730;8.006;2024-02-04T00:21:44;101353.75;;;9.04;100.00
5522;BME280;2783;48.730;8.006;2024-02-04T00:24:10;101415.50;;;9.34;100.00
5522;BME280;2783;48.730;8.006;2024-02-04T00:26:35;101404.00;;;9.34;100.00
5522;BME280;2783;48.730;8.006;2024-02-04T00:29:00;101396.88;;;9.39;100.00
5522;BME280;2783;48.730;8.006;2024-02-04T00:31:26;101374.78;;;9.34;100.00
5522;BME280;2783;48.730;8.006;2024-02-04T00:33:51;101377.44;;;9.37;100.00
5522;BME280;2783;48.730;8.006;2024-02-04T00:36:17;101351.78;;;9.34;100.00
5522;BME280;2783;48.730;8.006;2024-02-04T00:38:43;101352.72;;;9.29;100.00
5522;BME280;2783;48.730;8.006;2024-02-04T00:41:08;101353.56;;;9.31;100.00
5522;BME280;2783;48.730;8.006;2024-02-04T00:43:34;101370.44;;;9.25;100.00
5522;BME280;2783;48.730;8.006;2024-02-04T00:45:59;101375.75;;;9.21;100.00
5522;BME280;2783;48.730;8.006;2024-02-04T00:48:26;101368.69;;;9.20;100.00
5522;BME280;2783;48.730;8.006;2024-02-04T00:50:51;101382.84;;;9.22;100.00
5522;BME280;2783;48.730;8.006;2024-02-04T00:53:17;101387.25;;;9.24;100.00
5522;BME280;2783;48.730;8.006;2024-02-04T00:55:42;101402.25;;;9.31;100.00
5522;BME280;2783;48.730;8.006;2024-02-04T00:58:08;101393.41;;;9.28;100.00
5522;BME280;2783;48.730;8.006;2024-02-04T01:00:33;101385.47;;;9.25;100.00
5522;BME280;2783;48.730;8.006;2024-02-04T01:02:58;101383.69;;;9.27;100.00
5522;BME280;2783;48.730;8.006;2024-02-04T01:05:24;101342.19;;;9.08;100.00
5522;BME280;2783;48.730;8.006;2024-02-04T01:07:49;101365.13;;;9.22;100.00
5522;BME280;2783;48.730;8.006;2024-02-04T01:10:15;101358.94;;;9.23;100.00
5522;BME280;2783;48.730;8.006;2024-02-04T01:12:40;101357.19;;;9.24;100.00
5522;BME280;2783;48.730;8.006;2024-02-04T01:15:06;101364.22;;;9.26;100.00
5522;BME280;2783;48.730;8.006;2024-02-04T01:17:31;101352.72;;;9.29;100.00
5522;BME280;2783;48.730;8.006;2024-02-04T01:19:58;101351.81;;;9.30;100.00
5522;BME280;2783;48.730;8.006;2024-02-04T01:22:24;101328.06;;;9.09;100.00
5522;BME280;2783;48.730;8.006;2024-02-04T01:24:52;101363.28;;;9.35;100.00
5522;BME280;2783;48.730;8.006;2024-02-04T01:27:17;101358.84;;;9.34;100.00
5522;BME280;2783;48.730;8.006;2024-02-04T01:29:43;101366.81;;;9.34;100.00
5522;BME280;2783;48.730;8.006;2024-02-04T01:32:08;101368.63;;;9.30;100.00
5522;BME280;2783;48.730;8.006;2024-02-04T01:34:34;101375.72;;;9.28;100.00
5522;BME280;2783;48.730;8.006;2024-02-04T01:36:59;101393.44;;;9.26;100.00
5522;BME280;2783;48.730;8.006;2024-02-04T01:39:24;101349.31;;;9.06;100.00
5522;BME280;2783;48.730;8.006;2024-02-04T01:41:50;101382.84;;;9.22;100.00
5522;BME280;2783;48.730;8.006;2024-02-04T01:44:16;101353.75;;;8.98;100.00
5522;BME280;2783;48.730;8.006;2024-02-04T01:46:42;101399.63;;;9.21;100.00
5522;BME280;2783;48.730;8.006;2024-02-04T01:49:08;101392.56;;;9.21;100.00
5522;BME280;2783;48.730;8.006;2024-02-04T01:51:34;101396.97;;;9.21;100.00
5522;BME280;2783;48.730;8.006;2024-02-04T01:54:00;101398.78;;;9.20;100.00
5522;BME280;2783;48.730;8.006;2024-02-04T01:56:25;101391.72;;;9.16;100.00
5522;BME280;2783;48.730;8.006;2024-02-04T01:58:52;101363.50;;;8.93;100.00
5522;BME280;2783;48.730;8.006;2024-02-04T02:01:19;101408.50;;;9.21;100.00
5522;BME280;2783;48.730;8.006;2024-02-04T02:03:44;101397.91;;;9.15;100.00
5522;BME280;2783;48.730;8.006;2024-02-04T02:06:10;101397.94;;;9.12;100.00
5522;BME280;2783;48.730;8.006;2024-02-04T02:08:35;101407.63;;;9.18;100.00
5522;BME280;2783;48.730;8.006;2024-02-04T02:11:11;101411.19;;;9.14;100.00
5522;BME280;2783;48.730;8.006;2024-02-04T02:13:39;101412.06;;;9.13;100.00
5522;BME280;2783;48.730;8.006;2024-02-04T02:16:10;101420.91;;;9.16;100.00
5522;BME280;2783;48.730;8.006;2024-02-04T02:26:46;101366.25;;;8.73;100.00
5522;BME280;2783;48.730;8.006;2024-02-04T02:29:11;101413.94;;;8.97;100.00
5522;BME280;2783;48.730;8.006;2024-02-04T02:31:38;101428.06;;;8.93;100.00
5522;BME280;2783;48.730;8.006;2024-02-04T02:34:05;101423.66;;;8.97;100.00
5522;BME280;2783;48.730;8.006;2024-02-04T02:36:48;101385.75;;;8.65;100.00
5522;BME280;2783;48.730;8.006;2024-02-04T02:41:44;101406.88;;;8.90;100.00
5522;BME280;2783;48.730;8.006;2024-02-04T02:44:13;101405.09;;;8.92;100.00
5522;BME280;2783;48.730;8.006;2024-02-04T02:46:40;101372.44;;;8.74;100.00
5522;BME280;2783;48.730;8.006;2024-02-04T02:49:05;101418.34;;;8.94;100.00
5522;BME280;2783;48.730;8.006;2024-02-04T02:51:31;101408.63;;;8.88;100.00
5522;BME280;2783;48.730;8.006;2024-02-04T02:53:56;101413.06;;;8.91;100.00
5522;BME280;2783;48.730;8.006;2024-02-04T02:56:21;101413.06;;;8.91;100.00
5522;BME280;2783;48.730;8.006;2024-02-04T02:58:47;101409.50;;;8.95;100.00
5522;BME280;2783;48.730;8.006;2024-02-04T03:01:12;101413.06;;;8.94;100.00
5522;BME280;2783;48.730;8.006;2024-02-04T03:03:38;101409.50;;;8.95;100.00
5522;BME280;2783;48.730;8.006;2024-02-04T03:06:03;101401.56;;;8.90;100.00
5522;BME280;2783;48.730;8.006;2024-02-04T03:08:28;101393.63;;;8.86;100.00
5522;BME280;2783;48.730;8.006;2024-02-04T03:10:54;101396.28;;;8.78;100.00
5522;BME280;2783;48.730;8.006;2024-02-04T03:13:19;101409.53;;;8.86;100.00
5522;BME280;2783;48.730;8.006;2024-02-04T03:15:45;101411.31;;;8.84;100.00
5522;BME280;2783;48.730;8.006;2024-02-04T03:18:10;101407.75;;;8.94;100.00
5522;BME280;2783;48.730;8.006;2024-02-04T03:20:36;101404.22;;;8.92;100.00
5522;BME280;2783;48.730;8.006;2024-02-04T03:23:01;101393.63;;;8.86;100.00
5522;BME280;2783;48.730;8.006;2024-02-04T03:25:27;101342.44;;;8.54;100.00
5522;BME280;2783;48.730;8.006;2024-02-04T03:27:54;101375.94;;;8.82;100.00
5522;BME280;2783;48.730;8.006;2024-02-04T03:30:19;101328.31;;;8.55;100.00
5522;BME280;2783;48.730;8.006;2024-02-04T03:32:45;101318.59;;;8.49;100.00
5522;BME280;2783;48.730;8.006;2024-02-04T03:35:10;101357.44;;;8.73;100.00
5522;BME280;2783;48.730;8.006;2024-02-04T03:37:36;101356.53;;;8.74;100.00
5522;BME280;2783;48.730;8.006;2024-02-04T03:40:01;101351.28;;;8.65;100.00
5522;BME280;2783;48.730;8.006;2024-02-04T03:42:26;101343.28;;;8.63;100.00
5522;BME280;2783;48.730;8.006;2024-02-04T03:44:52;101344.22;;;8.58;100.00
5522;BME280;2783;48.730;8.006;2024-02-04T03:47:17;101343.31;;;8.57;100.00
5522;BME280;2783;48.730;8.006;2024-02-04T03:49:43;101341.56;;;8.56;100.00
5522;BME280;2783;48.730;8.006;2024-02-04T03:52:08;101336.28;;;8.53;100.00
5522;BME280;2783;48.730;8.006;2024-02-04T03:54:33;101335.38;;;8.53;100.00
5522;BME280;2783;48.730;8.006;2024-02-04T03:56:59;101271.84;;;8.09;100.00
5522;BME280;2783;48.730;8.006;2024-02-04T03:59:24;101333.66;;;8.38;100.00
5522;BME280;2783;48.730;8.006;2024-02-04T04:01:50;101291.28;;;8.19;100.00
5522;BME280;2783;48.730;8.006;2024-02-04T04:04:18;101322.19;;;8.36;100.00
5522;BME280;2783;48.730;8.006;2024-02-04T04:06:45;101264.81;;;7.94;100.00
5522;BME280;2783;48.730;8.006;2024-02-04T04:09:10;101323.09;;;8.28;100.00
5522;BME280;2783;48.730;8.006;2024-02-04T04:11:36;101314.25;;;8.11;100.00
5522;BME280;2783;48.730;8.006;2024-02-04T04:14:02;101362.81;;;8.34;100.00
5522;BME280;2783;48.730;8.006;2024-02-04T04:16:27;101350.47;;;8.34;100.00
5522;BME280;2783;48.730;8.006;2024-02-04T04:18:53;101309.84;;;8.20;100.00
5522;BME280;2783;48.730;8.006;2024-02-04T04:21:18;101361.06;;;8.43;100.00
5522;BME280;2783;48.730;8.006;2024-02-04T04:23:44;101354.84;;;8.46;100.00
5522;BME280;2783;48.730;8.006;2024-02-04T04:26:09;101365.44;;;8.46;100.00
5522;BME280;2783;48.730;8.006;2024-02-04T04:28:35;101365.41;;;8.52;100.00
5522;BME280;2783;48.730;8.006;2024-02-04T04:31:00;101361.91;;;8.53;100.00
5522;BME280;2783;48.730;8.006;2024-02-04T04:33:26;101349.53;;;8.46;100.00
5522;BME280;2783;48.730;8.006;2024-02-04T04:35:51;101357.50;;;8.55;100.00
5522;BME280;2783;48.730;8.006;2024-02-04T04:38:16;101353.03;;;8.58;100.00
5522;BME280;2783;48.730;8.006;2024-02-04T04:40:42;101360.13;;;8.58;100.00
5522;BME280;2783;48.730;8.006;2024-02-04T04:43:07;101356.53;;;8.63;100.00
5522;BME280;2783;48.730;8.006;2024-02-04T04:45:33;101353.03;;;8.63;100.00
5522;BME280;2783;48.730;8.006;2024-02-04T04:47:58;101357.47;;;8.59;100.00
5522;BME280;2783;48.730;8.006;2024-02-04T04:50:24;101357.44;;;8.64;100.00
5522;BME280;2783;48.730;8.006;2024-02-04T04:52:49;101361.84;;;8.62;100.00
5522;BME280;2783;48.730;8.006;2024-02-04T04:55:15;101360.97;;;8.67;100.00
5522;BME280;2783;48.730;8.006;2024-02-04T04:57:40;101365.38;;;8.67;100.00
5522;BME280;2783;48.730;8.006;2024-02-04T05:00:06;101328.31;;;8.49;100.00
5522;BME280;2783;48.730;8.006;2024-02-04T05:02:35;101360.06;;;8.70;100.00
5522;BME280;2783;48.730;8.006;2024-02-04T05:05:00;101365.38;;;8.73;100.00
5522;BME280;2783;48.730;8.006;2024-02-04T05:07:26;101368.91;;;8.72;100.00
5522;BME280;2783;48.730;8.006;2024-02-04T05:09:51;101376.00;;;8.73;100.00
5522;BME280;2783;48.730;8.006;2024-02-04T05:12:17;101366.22;;;8.75;100.00
5522;BME280;2783;48.730;8.006;2024-02-04T05:14:42;101364.44;;;8.80;100.00
5522;BME280;2783;48.730;8.006;2024-02-04T05:17:08;101369.78;;;8.83;100.00
5522;BME280;2783;48.730;8.006;2024-02-04T05:19:35;101365.34;;;8.80;100.00
5522;BME280;2783;48.730;8.006;2024-02-04T05:22:01;101377.72;;;8.80;100.00
5522;BME280;2783;48.730;8.006;2024-02-04T05:24:26;101381.25;;;8.82;100.00
5522;BME280;2783;48.730;8.006;2024-02-04T05:26:52;101380.38;;;8.78;100.00
5522;BME280;2783;48.730;8.006;2024-02-04T05:29:17;101359.22;;;8.62;100.00
5522;BME280;2783;48.730;8.006;2024-02-04T05:31:43;101395.38;;;8.85;100.00
5522;BME280;2783;48.730;8.006;2024-02-04T05:34:09;101383.91;;;8.82;100.00
5522;BME280;2783;48.730;8.006;2024-02-04T05:36:35;101386.53;;;8.83;100.00
5522;BME280;2783;48.730;8.006;2024-02-04T05:39:16;101327.44;;;8.45;100.00
5522;BME280;2783;48.730;8.006;2024-02-04T05:41:42;101383.00;;;8.86;100.00
5522;BME280;2783;48.730;8.006;2024-02-04T05:44:08;101386.56;;;8.88;100.00
5522;BME280;2783;48.730;8.006;2024-02-04T05:46:37;101335.38;;;8.56;100.00
5522;BME280;2783;48.730;8.006;2024-02-04T05:49:03;101390.09;;;8.84;100.00
5522;BME280;2783;48.730;8.006;2024-02-04T05:51:31;101380.34;;;8.81;100.00
5522;BME280;2783;48.730;8.006;2024-02-04T05:53:56;101386.56;;;8.82;100.00
5522;BME280;2783;48.730;8.006;2024-02-04T05:56:22;101393.63;;;8.80;100.00
5522;BME280;2783;48.730;8.006;2024-02-04T05:58:47;101398.94;;;8.83;100.00
5522;BME280;2783;48.730;8.006;2024-02-04T06:01:13;101391.88;;;8.80;100.00
5522;BME280;2783;48.730;8.006;2024-02-04T06:03:38;101387.47;;;8.78;100.00
5522;BME280;2783;48.730;8.006;2024-02-04T06:06:04;101398.94;;;8.80;100.00
5522;BME280;2783;48.730;8.006;2024-02-04T06:08:29;101389.19;;;8.82;100.00
5522;BME280;2783;48.730;8.006;2024-02-04T06:10:55;101384.81;;;8.81;100.00
5522;BME280;2783;48.730;8.006;2024-02-04T06:13:20;101373.31;;;8.77;100.00
5522;BME280;2783;48.730;8.006;2024-02-04T06:15:46;101395.44;;;8.78;100.00
5522;BME280;2783;48.730;8.006;2024-02-04T06:18:11;101402.50;;;8.73;100.00
5522;BME280;2783;48.730;8.006;2024-02-04T06:20:37;101397.19;;;8.76;100.00
5522;BME280;2783;48.730;8.006;2024-02-04T06:23:02;101393.66;;;8.77;100.00
5522;BME280;2783;48.730;8.006;2024-02-04T06:25:28;101394.56;;;8.74;100.00
5522;BME280;2783;48.730;8.006;2024-02-04T06:27:53;101395.44;;;8.69;100.00
5522;BME280;2783;48.730;8.006;2024-02-04T06:30:19;101399.84;;;8.77;100.00
5522;BME280;2783;48.730;8.006;2024-02-04T06:32:44;101421.06;;;8.74;100.00
5522;BME280;2783;48.730;8.006;2024-02-04T06:35:09;101419.28;;;8.73;100.00
5522;BME280;2783;48.730;8.006;2024-02-04T06:37:35;101420.19;;;8.74;100.00
5522;BME280;2783;48.730;8.006;2024-02-04T06:40:00;101416.66;;;8.69;100.00
5522;BME280;2783;48.730;8.006;2024-02-04T06:42:26;101423.75;;;8.73;100.00
5522;BME280;2783;48.730;8.006;2024-02-04T06:44:51;101427.25;;;8.72;100.00
5522;BME280;2783;48.730;8.006;2024-02-04T06:47:16;101421.94;;;8.75;100.00
5522;BME280;2783;48.730;8.006;2024-02-04T06:49:45;101391.06;;;8.53;100.00
5522;BME280;2783;48.730;8.006;2024-02-04T06:52:13;101429.91;;;8.73;100.00
5522;BME280;2783;48.730;8.006;2024-02-04T06:54:38;101422.84;;;8.74;100.00
5522;BME280;2783;48.730;8.006;2024-02-04T06:57:04;101420.16;;;8.77;100.00
5522;BME280;2783;48.730;8.006;2024-02-04T06:59:29;101395.47;;;8.63;100.00
5522;BME280;2783;48.730;8.006;2024-02-04T07:01:54;101398.06;;;8.73;100.00
5522;BME280;2783;48.730;8.006;2024-02-04T07:04:20;101425.47;;;8.77;100.00
5522;BME280;2783;48.730;8.006;2024-02-04T07:06:50;101377.81;;;8.51;100.00
5522;BME280;2783;48.730;8.006;2024-02-04T07:09:16;101418.38;;;8.83;100.00
5522;BME280;2783;48.730;8.006;2024-02-04T07:11:41;101407.78;;;8.82;100.00
5522;BME280;2783;48.730;8.006;2024-02-04T07:14:07;101414.00;;;8.79;100.00
5522;BME280;2783;48.730;8.006;2024-02-04T07:16:33;101368.97;;;8.54;100.00
5522;BME280;2783;48.730;8.006;2024-02-04T07:18:59;101400.72;;;8.79;100.00
5522;BME280;2783;48.730;8.006;2024-02-04T07:21:24;101390.97;;;8.80;100.00
5522;BME280;2783;48.730;8.006;2024-02-04T07:23:50;101394.53;;;8.79;100.00
5522;BME280;2783;48.730;8.006;2024-02-04T07:26:15;101357.44;;;8.62;100.00
5522;BME280;2783;48.730;8.006;2024-02-04T07:28:40;101386.53;;;8.85;100.00
5522;BME280;2783;48.730;8.006;2024-02-04T07:31:06;101379.47;;;8.87;100.00
5522;BME280;2783;48.730;8.006;2024-02-04T07:33:31;101374.19;;;8.81;100.00
5522;BME280;2783;48.730;8.006;2024-02-04T07:35:57;101369.75;;;8.81;100.00
5522;BME280;2783;48.730;8.006;2024-02-04T07:38:22;101345.94;;;8.68;100.00
5522;BME280;2783;48.730;8.006;2024-02-04T07:40:47;101365.38;;;8.74;100.00
5522;BME280;2783;48.730;8.006;2024-02-04T07:43:13;101359.19;;;8.71;100.00
5522;BME280;2783;48.730;8.006;2024-02-04T07:45:38;101352.97;;;8.75;100.00
5522;BME280;2783;48.730;8.006;2024-02-04T07:48:04;101360.03;;;8.82;100.00
5522;BME280;2783;48.730;8.006;2024-02-04T07:50:29;101375.06;;;8.80;100.00
5522;BME280;2783;48.730;8.006;2024-02-04T07:52:55;101382.16;;;8.81;100.00
5522;BME280;2783;48.730;8.006;2024-02-04T07:55:20;101378.59;;;8.89;100.00
5522;BME280;2783;48.730;8.006;2024-02-04T07:57:46;101375.06;;;8.86;100.00
5522;BME280;2783;48.730;8.006;2024-02-04T08:00:12;101395.31;;;9.02;100.00
5522;BME280;2783;48.730;8.006;2024-02-04T08:02:37;101382.94;;;8.98;100.00
5522;BME280;2783;48.730;8.006;2024-02-04T08:05:04;101391.75;;;9.03;100.00
5522;BME280;2783;48.730;8.006;2024-02-04T08:07:30;101378.50;;;9.06;100.00
5522;BME280;2783;48.730;8.006;2024-02-04T08:09:55;101382.91;;;9.08;100.00
5522;BME280;2783;48.730;8.006;2024-02-04T08:12:21;101392.63;;;9.06;100.00
5522;BME280;2783;48.730;8.006;2024-02-04T08:14:46;101387.28;;;9.11;100.00
5522;BME280;2783;48.730;8.006;2024-02-04T08:17:12;101395.28;;;9.14;100.00
5522;BME280;2783;48.730;8.006;2024-02-04T08:19:37;101388.16;;;9.19;100.00
5522;BME280;2783;48.730;8.006;2024-02-04T08:22:03;101351.97;;;9.07;100.00
5522;BME280;2783;48.730;8.006;2024-02-04T08:24:29;101381.94;;;9.23;100.00
5522;BME280;2783;48.730;8.006;2024-02-04T08:26:57;101379.25;;;9.26;100.00
5522;BME280;2783;48.730;8.006;2024-02-04T08:29:22;101386.34;;;9.27;100.00
5522;BME280;2783;48.730;8.006;2024-02-04T08:31:48;101397.81;;;9.35;100.00
5522;BME280;2783;48.730;8.006;2024-02-04T08:34:13;101404.88;;;9.41;100.00
5522;BME280;2783;48.730;8.006;2024-02-04T08:36:39;101384.59;;;9.29;100.00
5522;BME280;2783;48.730;8.006;2024-02-04T08:39:04;101396.91;;;9.42;100.00
5522;BME280;2783;48.730;8.006;2024-02-04T08:41:29;101328.91;;;9.15;100.00
5522;BME280;2783;48.730;8.006;2024-02-04T08:43:55;101376.50;;;9.49;100.00
5522;BME280;2783;48.730;8.006;2024-02-04T08:46:20;101372.88;;;9.56;100.00
5522;BME280;2783;48.730;8.006;2024-02-04T08:48:46;101359.59;;;9.54;100.00
5522;BME280;2783;48.730;8.006;2024-02-04T08:51:11;101357.84;;;9.56;99.38
5522;BME280;2783;48.730;8.006;2024-02-04T08:53:38;101363.06;;;9.70;99.93
5522;BME280;2783;48.730;8.006;2024-02-04T08:56:05;101359.31;;;9.92;99.49
5522;BME280;2783;48.730;8.006;2024-02-04T08:58:31;101354.72;;;10.13;98.06
5522;BME280;2783;48.730;8.006;2024-02-04T09:00:57;101319.28;;;10.10;95.24
5522;BME280;2783;48.730;8.006;2024-02-04T09:03:22;101351.66;;;10.51;94.00
5522;BME280;2783;48.730;8.006;2024-02-04T09:05:48;101353.25;;;10.69;93.12
5522;BME280;2783;48.730;8.006;2024-02-04T09:08:14;101355.41;;;11.08;89.53
5522;BME280;2783;48.730;8.006;2024-02-04T09:10:39;101374.56;;;11.34;89.11
5522;BME280;2783;48.730;8.006;2024-02-04T09:13:04;101377.69;;;11.61;86.25
5522;BME280;2783;48.730;8.006;2024-02-04T09:15:30;101379.41;;;11.68;84.39
5522;BME280;2783;48.730;8.006;2024-02-04T09:17:55;101379.06;;;11.89;84.14
5522;BME280;2783;48.730;8.006;2024-02-04T09:20:21;101375.19;;;12.09;82.85
5522;BME280;2783;48.730;8.006;2024-02-04T09:22:46;101378.44;;;11.74;83.51
5522;BME280;2783;48.730;8.006;2024-02-04T09:25:11;101330.41;;;11.18;84.83
5522;BME280;2783;48.730;8.006;2024-02-04T09:27:37;101380.88;;;11.27;86.89
5522;BME280;2783;48.730;8.006;2024-02-04T09:30:03;101381.81;;;11.24;87.04
5522;BME280;2783;48.730;8.006;2024-02-04T09:32:28;101360.84;;;11.00;88.01
5522;BME280;2783;48.730;8.006;2024-02-04T09:34:54;101386.34;;;11.18;88.40
5522;BME280;2783;48.730;8.006;2024-02-04T09:37:19;101325.53;;;10.85;88.71
5522;BME280;2783;48.730;8.006;2024-02-04T09:39:45;101395.00;;;11.35;88.66
5522;BME280;2783;48.730;8.006;2024-02-04T09:42:19;101368.56;;;11.20;87.77
5522;BME280;2783;48.730;8.006;2024-02-04T09:44:44;101360.59;;;11.15;88.09
5522;BME280;2783;48.730;8.006;2024-02-04T09:47:11;101394.44;;;11.07;88.03
5522;BME280;2783;48.730;8.006;2024-02-04T09:49:37;101404.38;;;10.95;89.14
5522;BME280;2783;48.730;8.006;2024-02-04T09:52:07;101397.47;;;10.79;89.55
5522;BME280;2783;48.730;8.006;2024-02-04T09:54:40;101394.03;;;10.71;89.48
5522;BME280;2783;48.730;8.006;2024-02-04T09:57:08;101340.91;;;10.61;90.89
5522;BME280;2783;48.730;8.006;2024-02-04T09:59:33;101359.00;;;11.02;90.23
5522;BME280;2783;48.730;8.006;2024-02-04T10:02:01;101344.19;;;11.45;88.92
5522;BME280;2783;48.730;8.006;2024-02-04T10:04:28;101324.50;;;12.10;85.47
5522;BME280;2783;48.730;8.006;2024-02-04T10:06:54;101324.72;;;13.31;80.79
5522;BME280;2783;48.730;8.006;2024-02-04T10:09:19;101329.63;;;14.83;73.13
5522;BME280;2783;48.730;8.006;2024-02-04T10:11:45;101343.41;;;15.29;67.59
5522;BME280;2783;48.730;8.006;2024-02-04T10:14:10;101355.78;;;15.04;65.00
5522;BME280;2783;48.730;8.006;2024-02-04T10:16:36;101357.00;;;14.62;66.53
5522;BME280;2783;48.730;8.006;2024-02-04T10:19:02;101346.94;;;15.01;66.46
5522;BME280;2783;48.730;8.006;2024-02-04T10:21:28;101352.19;;;15.34;65.53
5522;BME280;2783;48.730;8.006;2024-02-04T10:23:54;101356.81;;;15.86;61.99
5522;BME280;2783;48.730;8.006;2024-02-04T10:26:21;101336.47;;;15.22;63.45
5522;BME280;2783;48.730;8.006;2024-02-04T10:28:50;101368.91;;;14.52;65.94
5522;BME280;2783;48.730;8.006;2024-02-04T10:31:17;101373.25;;;13.51;71.84
5522;BME280;2783;48.730;8.006;2024-02-04T10:33:43;101374.06;;;13.14;73.74
5522;BME280;2783;48.730;8.006;2024-02-04T10:36:08;101387.94;;;12.87;75.93
5522;BME280;2783;48.730;8.006;2024-02-04T10:38:35;101382.94;;;12.71;77.49
5522;BME280;2783;48.730;8.006;2024-02-04T10:41:01;101383.59;;;12.36;78.84
5522;BME280;2783;48.730;8.006;2024-02-04T10:43:33;101378.31;;;12.33;80.73
5522;BME280;2783;48.730;8.006;2024-02-04T10:46:19;101389.88;;;12.34;80.70
5522;BME280;2783;48.730;8.006;2024-02-04T10:48:53;101390.84;;;12.28;80.79
5522;BME280;2783;48.730;8.006;2024-02-04T10:51:24;101373.34;;;12.14;81.01
5522;BME280;2783;48.730;8.006;2024-02-04T10:53:51;101375.97;;;12.15;81.60
5522;BME280;2783;48.730;8.006;2024-02-04T10:58:46;101379.53;;;12.14;82.30
5522;BME280;2783;48.730;8.006;2024-02-04T11:01:13;101379.53;;;12.14;82.21
5522;BME280;2783;48.730;8.006;2024-02-04T11:03:40;101374.09;;;12.20;81.57
5522;BME280;2783;48.730;8.006;2024-02-04T11:06:07;101365.56;;;12.00;81.97
5522;BME280;2783;48.730;8.006;2024-02-04T11:08:34;101371.94;;;11.91;83.05
5522;BME280;2783;48.730;8.006;2024-02-04T11:11:00;101338.63;;;11.63;83.72
5522;BME280;2783;48.730;8.006;2024-02-04T11:13:28;101362.16;;;11.92;84.12
5522;BME280;2783;48.730;8.006;2024-02-04T11:15:57;101369.47;;;11.78;83.42
5522;BME280;2783;48.730;8.006;2024-02-04T11:18:49;101362.53;;;11.68;84.53
5522;BME280;2783;48.730;8.006;2024-02-04T11:21:40;101364.41;;;11.60;85.15
5522;BME280;2783;48.730;8.006;2024-02-04T11:26:51;101363.50;;;11.61;85.12
5522;BME280;2783;48.730;8.006;2024-02-04T11:29:18;101350.97;;;11.69;86.13
5522;BME280;2783;48.730;8.006;2024-02-04T11:31:43;101343.72;;;11.78;85.65
5522;BME280;2783;48.730;8.006;2024-02-04T11:34:09;101279.13;;;11.60;85.05
5522;BME280;2783;48.730;8.006;2024-02-04T11:36:39;101328.28;;;11.97;84.19
5522;BME280;2783;48.730;8.006;2024-02-04T11:39:26;101324.06;;;11.85;83.39
5522;BME280;2783;48.730;8.006;2024-02-04T11:41:52;101324.81;;;11.92;84.25
5522;BME280;2783;48.730;8.006;2024-02-04T11:44:26;101315.38;;;11.74;85.48
5522;BME280;2783;48.730;8.006;2024-02-04T11:46:52;101250.25;;;11.34;85.24
5522;BME280;2783;48.730;8.006;2024-02-04T11:49:24;101305.50;;;11.78;86.10
5522;BME280;2783;48.730;8.006;2024-02-04T11:51:51;101273.69;;;11.69;85.45
5522;BME280;2783;48.730;8.006;2024-02-04T11:54:17;101290.28;;;11.86;85.90
5522;BME280;2783;48.730;8.006;2024-02-04T11:56:49;101283.00;;;11.96;84.99
5522;BME280;2783;48.730;8.006;2024-02-04T11:59:24;101282.91;;;12.00;84.44
5522;BME280;2783;48.730;8.006;2024-02-04T12:02:05;101255.72;;;11.80;84.63
5522;BME280;2783;48.730;8.006;2024-02-04T12:04:31;101294.50;;;11.96;84.39
5522;BME280;2783;48.730;8.006;2024-02-04T12:06:57;101291.84;;;11.98;85.79
5522;BME280;2783;48.730;8.006;2024-02-04T12:09:24;101231.19;;;11.58;85.25
5522;BME280;2783;48.730;8.006;2024-02-04T12:11:49;101264.84;;;11.67;85.65
5522;BME280;2783;48.730;8.006;2024-02-04T12:14:15;101299.28;;;11.79;85.46
5522;BME280;2783;48.730;8.006;2024-02-04T12:16:41;101291.44;;;11.70;86.55
5522;BME280;2783;48.730;8.006;2024-02-04T12:19:07;101240.50;;;11.35;86.49
5522;BME280;2783;48.730;8.006;2024-02-04T12:21:33;101280.75;;;11.70;87.55
5522;BME280;2783;48.730;8.006;2024-02-04T12:23:59;101262.91;;;11.75;87.63
5522;BME280;2783;48.730;8.006;2024-02-04T12:26:25;101269.03;;;11.80;87.41
5522;BME280;2783;48.730;8.006;2024-02-04T12:28:50;101227.69;;;11.55;87.18
5522;BME280;2783;48.730;8.006;2024-02-04T12:31:17;101267.31;;;11.77;87.64
5522;BME280;2783;48.730;8.006;2024-02-04T12:33:52;101266.38;;;11.80;86.94
5522;BME280;2783;48.730;8.006;2024-02-04T12:36:19;101262.75;;;11.84;86.98
5522;BME280;2783;48.730;8.006;2024-02-04T12:38:51;101229.25;;;11.71;86.87
5522;BME280;2783;48.730;8.006;2024-02-04T12:41:17;101249.31;;;11.90;87.22
5522;BME280;2783;48.730;8.006;2024-02-04T12:43:49;101210.75;;;11.59;87.72
5522;BME280;2783;48.730;8.006;2024-02-04T12:46:15;101244.94;;;11.87;87.55
5522;BME280;2783;48.730;8.006;2024-02-04T12:48:40;101239.38;;;11.98;87.38
5522;BME280;2783;48.730;8.006;2024-02-04T12:51:06;101212.97;;;11.86;87.31
5522;BME280;2783;48.730;8.006;2024-02-04T12:53:31;101241.03;;;12.05;86.84
5522;BME280;2783;48.730;8.006;2024-02-04T12:56:00;101249.03;;;12.05;86.44
5522;BME280;2783;48.730;8.006;2024-02-04T12:58:25;101243.66;;;12.07;86.24
5522;BME280;2783;48.730;8.006;2024-02-04T13:01:00;101242.84;;;12.03;86.48
5522;BME280;2783;48.730;8.006;2024-02-04T13:03:26;101241.88;;;12.07;86.20
5522;BME280;2783;48.730;8.006;2024-02-04T13:05:57;101221.69;;;11.94;86.17
5522;BME280;2783;48.730;8.006;2024-02-04T13:08:23;101249.78;;;12.12;85.99
5522;BME280;2783;48.730;8.006;2024-02-04T13:10:54;101253.31;;;12.14;86.01
5522;BME280;2783;48.730;8.006;2024-02-04T13:13:21;101222.75;;;11.85;86.28
5522;BME280;2783;48.730;8.006;2024-02-04T13:15:46;101243.81;;;11.99;87.22
5522;BME280;2783;48.730;8.006;2024-02-04T13:18:12;101250.84;;;12.03;87.09
5522;BME280;2783;48.730;8.006;2024-02-04T13:20:42;101246.16;;;12.14;87.21
5522;BME280;2783;48.730;8.006;2024-02-04T13:23:08;101246.09;;;12.19;87.63